Edward G. Pitka Sr Airport Galena US
ICAO: PAGA
IATA:
Category: Medium
Scheduled Services:

Elevation: 153 ft
TransAlt. 18000 ft.

Airport Communications:
AWOS 3:132.525
ANCHORAGE CNTR:127
CTAF:123
FAIRBANKS RDO:122.2
GALENA OPS:39.12
PMSV METRO:134.5

PAGA Zoom In..

Runways:

(A) RW 06 length 2786 ft width 80 ft
---- / hdg 73

(B) RW 07 length 7249 ft width 150 ft
---- / hdg 72

(C) RW 24 length 2786 ft width 80 ft
---- / hdg 253

(D) RW 25 length 7249 ft width 150 ft
ILS 109.50 / hdg 252

Location; PAGA
Day. 15 / Time. 21.56 Zulu
* Altimeter: 29.82
* Temperature: 17° c. 62.6°f.
* Wind from: 250° Speed 14 kn with Gusts up to 19 kn.
Dewpoint: 07° c.
Visibility: 10 Statute Miles.
Clouds: Few 4400 ft.
Clouds: Overcast 6000 ft.

PAGA 152156Z AUTO 25014G19KT 10SM FEW044 OVC060 17/07 A2982 RMK AO2 SLP098 T01720067


Wind From 250°
Speed 14 kn.

 
 
jpsmedia.com for Web Design worldairports.se 2018   terms of use